Decoded Metar for KRST (ROCHESTER in MN, USA) (IATA:RST) | Meteo·Mobile Aviation Weather
aviador You're here:

KRST Decoded Metar

ROCHESTER in MN, USA
Report Time2020-02-22 21:54:00
UTC Time2020-02-22 22:24:39
Flight Rules vfr VFR
Wind170° at 17 kt
W.Decomp.*RWY 20: 14.6 kt HW 8.8 kt LCW
RWY 13: 13.2 kt HW 10.7 kt RCW
Visibility9999 m
Phenomena:N/A
Clouds:N/A
Expected CloudBase > 1,600 ft AGL from Temp-Dew spread
CeilingNone
Temp02°C (ISA -10)
Dew Point-2°C (75% RH)
AAT-6.4°C
QNH1013 hPa
Density Alt141 ft
Elevation1,322 ft
Report Wrong Elevation
Raw Report
KRST 222154Z 17017KT 10SM CLR 02/M02 A2991 RMK AO2 SLP146
T00171022=

Extra information for KRST:More info

Metar Taf Metar & Taf Last 4 Metars F.Rules Stats Wind Profile Meteogram Temp Stats Airport Information Weather charts Add Link Nearby VenuesMetar ALERT Operation Metar Decoded Social comments

AIRNAV info for KRST